Flight Track Log - Related Links

Times and Time Zones

All times are in EDT time to prevent confusion due to time zone crossing. See the UAL495 flight status page for this flight to view local times or setup timezone preferences in your user account.

Time Position Orientation Groundspeed Altitude Reporting Facility
EDT Latitude Longitude Course Direction KTS MPH feet Rate Location/Type
Thu 09:32:58 AM 33.9256 -118.4533 90° East 201 231 1,800  Level Los Center
Thu 09:33:59 AM 33.8781 -118.5114 225° Southwest 239 275 4,600 2,754 Climbing Los Center
Thu 09:35:00 AM 33.7830 -118.6439 132° Southeast  Level FlightAware
Thu 09:35:00 AM 33.8094 -118.5306 193° South 277 319 7,400  Level Los Center
Thu 09:36:00 AM 33.7038 -118.5422 134° Southeast  Level FlightAware
Thu 09:36:14 AM 33.7161 -118.5225 176° South 285 328 10,900  Level Los Center
Thu 09:37:00 AM 33.6660 -118.4149 116° Southeast  Level FlightAware
Thu 09:37:15 AM 33.6697 -118.4422 125° Southeast 316 364 12,800  Level Los Center
Thu 09:38:00 AM 33.6334 -118.2847 90° East  Level FlightAware
Thu 09:38:16 AM 33.6397 -118.3022 104° East 377 434 14,600  Level Los Center
Thu 09:39:17 AM 33.6569 -118.1778 81° East 395 455 16,900 2,049 Climbing Los Center
Thu 09:40:19 AM 33.7406 -118.0933 40° Northeast 404 465 18,800 1,951 Climbing Los Center
Thu 09:41:20 AM 33.8322 -118.0119 36° Northeast 413 475 20,900 1,721 Climbing Los Center
Thu 09:42:21 AM 33.9083 -117.9428 37° Northeast 425 489 22,300 1,854 Climbing Los Center
Thu 09:43:23 AM 34.0464 -117.8164 37° Northeast 447 514 24,700 1,951 Climbing Los Center
Thu 09:44:24 AM 34.1400 -117.7119 43° Northeast 461 531 26,300 1,574 Climbing Los Center
Thu 09:45:25 AM 34.2261 -117.5925 49° Northeast 472 543 27,900 1,463 Climbing Los Center
Thu 09:46:27 AM 34.3133 -117.4725 49° Northeast 475 547 29,300 1,463 Climbing Los Center
Thu 09:47:28 AM 34.3933 -117.3644 48° Northeast 478 550 30,900 1,561 Climbing Los Center
Thu 09:48:30 AM 34.4956 -117.2211 49° Northeast 474 545 32,500 1,512 Climbing Los Center
Thu 09:49:31 AM 34.5817 -117.1017 49° Northeast 474 545 34,000 1,220 Climbing Los Center
Thu 09:50:33 AM 34.6681 -116.9833 48° Northeast 472 543 35,000 488 Climbing Los Center
Thu 09:51:34 AM 34.7539 -116.8631 49° Northeast 474 545 35,000  Level Los Center
Thu 09:52:36 AM 34.8397 -116.7433 49° Northeast 474 545 35,000  Level Los Center
Thu 09:53:37 AM 34.9269 -116.6236 48° Northeast 475 547 35,000  Level Los Center
Thu 09:54:39 AM 35.0339 -116.4833 47° Northeast 473 544 35,000  Level Los Center
Thu 09:55:40 AM 35.1258 -116.3681 46° Northeast 475 547 35,000  Level Los Center
Thu 09:56:42 AM 35.2203 -116.2525 45° Northeast 480 552 35,000  Level Los Center
Thu 09:57:44 AM 35.3100 -116.1364 47° Northeast 476 548 35,000  Level Los Center
Thu 09:58:45 AM 35.4019 -116.0228 45° Northeast 472 543 35,000  Level Los Center
Thu 09:59:47 AM 35.4939 -115.9072 46° Northeast 473 544 35,000  Level Los Center
Thu 10:00:48 AM 35.6022 -115.7733 45° Northeast 463 533 35,000  Level Los Center
Thu 10:01:50 AM 35.6931 -115.6581 46° Northeast 466 536 35,000  Level Los Center
Thu 10:02:51 AM 35.7833 -115.5419 46° Northeast 470 541 35,000  Level Los Center
Thu 10:03:53 AM 35.8736 -115.4256 46° Northeast 472 543 35,000  Level Los Center
Thu 10:04:55 AM 35.9639 -115.3092 46° Northeast 473 544 35,000  Level Los Center
Thu 10:05:56 AM 36.0525 -115.1914 47° Northeast 470 541 35,000  Level Los Center
Thu 10:06:58 AM 36.1236 -115.0164 63° Northeast 481 554 35,000  Level Los Center
Thu 10:08:00 AM 36.1694 -114.8622 70° East 481 554 35,000  Level Los Center
Thu 10:09:01 AM 36.2167 -114.7097 69° East 477 549 35,000  Level Los Center
Thu 10:10:03 AM 36.2636 -114.5558 69° East 480 552 35,000  Level Los Center
Thu 10:11:05 AM 36.3111 -114.4017 69° East 480 552 35,000  Level Los Center
Thu 10:12:07 AM 36.3575 -114.2475 69° East 479 551 35,000  Level Los Center
Thu 10:13:08 AM 36.4050 -114.0922 69° East 482 555 35,000  Level Los Center
Thu 10:14:10 AM 36.4706 -113.9125 66° East 478 550 35,000  Level Los Center
Thu 10:15:12 AM 36.5242 -113.7561 67° East 478 550 35,000  Level Los Center
Thu 10:16:13 AM 36.5764 -113.6056 67° East 477 549 35,000  Level Los Center
Thu 10:17:15 AM 36.6269 -113.4531 68° East 478 550 35,000  Level Los Center
Thu 10:18:17 AM 36.6789 -113.3017 67° East 478 550 35,000 242 Level Los Center
Thu 10:19:19 AM 36.7300 -113.1511 67° East 476 548 35,500 726 Climbing Los Center
Thu 10:20:21 AM 36.7814 -113.0003 67° East 476 548 36,500 732 Climbing Los Center
Thu 10:21:22 AM 36.8431 -112.8189 67° East 477 549 37,000 244 Climbing Los Center
Thu 10:22:24 AM 36.8936 -112.6689 67° East 474 545 37,000  Level Los Center
Thu 10:23:26 AM 36.9439 -112.5211 67° East 468 539 37,000  Level Los Center
Thu 10:24:28 AM 36.9933 -112.3708 68° East 471 542 37,000  Level Los Center
Thu 10:25:30 AM 37.0433 -112.2203 67° East 473 544 37,000  Level Los Center
Thu 10:26:32 AM 37.0931 -112.0700 67° East 472 543 37,000  Level Los Center
Thu 10:26:48 AM 37.1131 -112.0097 67° East 473 544 37,000  Level Denver Center
Thu 10:27:34 AM 37.1531 -111.8894 67° East 471 542 37,000  Level Los Center
Thu 10:27:50 AM 37.1636 -111.8586 67° East 473 544 37,000  Level Denver Center
Thu 10:29:04 AM 37.2136 -111.7056 68° East 476 548 37,000  Level Denver Center
Thu 10:30:06 AM 37.2714 -111.5253 68° East 473 544 37,000  Level Denver Center
Thu 10:31:08 AM 37.3300 -111.3422 68° East 472 543 37,000  Level Denver Center
Thu 10:32:10 AM 37.3775 -111.1892 69° East 474 545 37,000  Level Denver Center
Thu 10:33:12 AM 37.4264 -111.0344 68° East 477 549 37,000  Level Denver Center
Thu 10:34:14 AM 37.4758 -110.8800 68° East 478 550 37,000  Level Denver Center
Thu 10:35:16 AM 37.5250 -110.7264 68° East 475 547 37,000  Level Denver Center
Thu 10:36:18 AM 37.5758 -110.5747 67° East 473 544 37,000  Level Denver Center
Thu 10:37:20 AM 37.6364 -110.4128 65° Northeast 471 542 37,000  Level Denver Center
Thu 10:38:22 AM 37.6975 -110.2442 65° Northeast 474 545 37,000  Level Denver Center
Thu 10:39:24 AM 37.7494 -110.0997 66° East 471 542 37,000  Level Denver Center
Thu 10:40:26 AM 37.8094 -109.9297 66° East 473 544 37,000  Level Denver Center
Thu 10:41:28 AM 37.8611 -109.7850 66° East 470 541 37,000  Level Denver Center
Thu 10:42:30 AM 37.9217 -109.6161 66° East 472 543 37,000  Level Denver Center
Thu 10:43:32 AM 37.9717 -109.4717 66° East 468 539 37,000  Level Denver Center
Thu 10:44:34 AM 38.0306 -109.3031 66° East 469 540 37,000  Level Denver Center
Thu 10:45:36 AM 38.0786 -109.1656 66° East 467 537 37,000  Level Denver Center
Thu 10:46:38 AM 38.1364 -108.9953 67° East 469 540 37,000  Level Denver Center
Thu 10:47:40 AM 38.1867 -108.8528 66° East 464 534 37,000  Level Denver Center
Thu 10:48:43 AM 38.2464 -108.6803 66° East 474 545 37,000  Level Denver Center
Thu 10:49:45 AM 38.2961 -108.5339 67° East 474 545 37,000  Level Denver Center
Thu 10:50:46 AM 38.3361 -108.4153 67° East 463 533 37,000 -871 Level Denver Center
Thu 10:51:49 AM 38.3981 -108.2297 67° East 450 518 35,200 -960 Descending Denver Center
Thu 10:52:51 AM 38.4525 -108.0658 67° East 450 518 35,000 -629 Descending Denver Center
Thu 10:53:53 AM 38.5003 -107.9233 67° East 455 524 33,900 -968 Descending Denver Center
Thu 10:54:55 AM 38.5567 -107.7522 67° East 467 537 33,000 -435 Descending Denver Center
Thu 10:55:57 AM 38.6111 -107.6072 64° Northeast 472 543 33,000  Level Denver Center
Thu 10:56:59 AM 38.6767 -107.4403 63° Northeast 471 542 33,000  Level Denver Center
Thu 10:58:01 AM 38.7303 -107.2969 64° Northeast 468 539 33,000  Level Denver Center
Thu 10:59:03 AM 38.7836 -107.1556 64° Northeast 474 545 33,000  Level Denver Center
Thu 11:00:05 AM 38.8514 -106.9750 64° Northeast 473 544 33,000  Level Denver Center
Thu 11:01:07 AM 38.9122 -106.8128 64° Northeast 474 545 33,000  Level Denver Center
Thu 11:02:09 AM 38.9658 -106.6672 65° Northeast 473 544 33,000 -871 Level Denver Center
Thu 11:03:11 AM 39.0283 -106.4978 65° Northeast 471 542 31,200 -1,935 Descending Denver Center
Thu 11:04:13 AM 39.0806 -106.3558 65° Northeast 463 533 29,000 -2,032 Descending Denver Center
Thu 11:05:15 AM 39.1289 -106.2233 65° Northeast 437 503 27,000 -1,984 Descending Denver Center
Thu 11:06:17 AM 39.1817 -106.0747 65° Northeast 410 472 24,900 -2,032 Descending Denver Center
Thu 11:07:19 AM 39.2267 -105.9494 65° Northeast 391 450 22,800 -1,935 Descending Denver Center
Thu 11:08:21 AM 39.2703 -105.8297 65° Northeast 373 429 20,900 -1,742 Descending Denver Center
Thu 11:09:23 AM 39.3119 -105.7131 65° Northeast 361 415 19,200 -1,403 Descending Denver Center
Thu 11:10:25 AM 39.3553 -105.5914 65° Northeast 370 426 18,000 -532 Descending Denver Center
Thu 11:11:27 AM 39.3947 -105.4667 68° East 349 402 18,100 -581 Climbing Denver Center
Thu 11:12:29 AM 39.4011 -105.3578 86° East 310 357 16,800 -1,248 Descending Denver Center
Thu 11:13:32 AM 39.4058 -105.2386 87° East 308 354 15,500 -1,248 Descending Denver Center
Thu 11:14:34 AM 39.4108 -105.1306 87° East 305 351 14,200 -1,016 Descending Denver Center
Thu 11:15:36 AM 39.4147 -105.0231 87° East 282 325 13,400 -581 Descending Denver Center
Thu 11:16:38 AM 39.4194 -104.9350 86° East 253 291 13,000 -581 Descending Denver Center
Thu 11:17:40 AM 39.4394 -104.8450 74° East 244 281 12,200 -871 Descending Denver Center
Thu 11:18:42 AM 39.4906 -104.7939 38° Northeast 232 267 11,200 -774 Descending Denver Center
Thu 11:19:44 AM 39.5444 -104.7472 34° Northeast 234 269 10,600 -581 Descending Denver Center
Thu 11:20:46 AM 39.6017 -104.6969 34° Northeast 232 267 10,000 -677 Descending Denver Center
Thu 11:21:48 AM 39.6589 -104.6611 26° Northeast 227 261 9,200 -774 Descending Denver Center

Login

Don't have an account? Register now (free) for customized features, flight alerts, and more!